createdAt,value
2022-09-11T00:02:23.806Z,35.97
2022-09-11T00:04:52.288Z,36.70
2022-09-11T00:07:19.408Z,36.85
2022-09-11T00:09:46.757Z,36.50
2022-09-11T00:12:13.740Z,37.10
2022-09-11T00:14:40.910Z,37.10
2022-09-11T00:17:07.984Z,36.95
2022-09-11T00:19:35.908Z,36.78
2022-09-11T00:22:05.880Z,37.22
2022-09-11T00:24:32.970Z,39.55
2022-09-11T00:27:00.945Z,38.40
2022-09-11T00:29:28.489Z,39.38
2022-09-11T00:31:57.636Z,38.38
2022-09-11T00:34:24.768Z,37.72
2022-09-11T00:36:52.242Z,37.60
2022-09-11T00:39:21.367Z,37.45
2022-09-11T00:41:49.145Z,38.58
2022-09-11T00:44:57.149Z,37.70
2022-09-11T00:47:24.294Z,39.83
2022-09-11T00:49:54.630Z,38.08
2022-09-11T00:52:27.222Z,38.38
2022-09-11T00:54:59.991Z,39.53
2022-09-11T00:57:30.504Z,39.45
2022-09-11T00:59:59.501Z,38.97
2022-09-11T01:02:29.976Z,37.08
2022-09-11T01:04:57.756Z,37.10
2022-09-11T01:07:27.105Z,36.22
2022-09-11T01:09:56.139Z,37.15
2022-09-11T01:12:29.601Z,36.67
2022-09-11T01:15:03.427Z,34.83
2022-09-11T01:17:39.128Z,35.35
2022-09-11T01:20:43.348Z,36.20
2022-09-11T01:23:42.734Z,36.13
2022-09-11T01:26:34.644Z,35.13
2022-09-11T01:29:08.100Z,36.40
2022-09-11T01:31:46.900Z,37.38
2022-09-11T01:34:20.273Z,35.80
2022-09-11T01:36:53.767Z,36.25
2022-09-11T01:39:25.324Z,34.20
2022-09-11T01:41:59.693Z,34.00
2022-09-11T01:44:33.175Z,34.60
2022-09-11T01:47:03.213Z,34.90
2022-09-11T01:49:35.341Z,33.85
2022-09-11T01:52:07.624Z,34.83
2022-09-11T01:54:41.921Z,35.35
2022-09-11T01:57:21.654Z,35.53
2022-09-11T01:59:57.063Z,35.03
2022-09-11T02:02:29.369Z,35.28
2022-09-11T02:05:03.059Z,37.30
2022-09-11T02:07:34.457Z,35.65
2022-09-11T02:10:09.377Z,35.75
2022-09-11T02:12:41.526Z,38.90
2022-09-11T02:15:13.689Z,35.95
2022-09-11T02:17:52.630Z,35.13
2022-09-11T02:20:21.022Z,35.08
2022-09-11T02:22:49.095Z,33.92
2022-09-11T02:25:16.404Z,36.13
2022-09-11T02:27:45.599Z,35.75
2022-09-11T02:30:14.859Z,34.90
2022-09-11T02:32:44.278Z,35.33
2022-09-11T02:35:11.672Z,34.35
2022-09-11T02:37:52.786Z,34.65
2022-09-11T02:40:46.284Z,33.50
2022-09-11T02:43:42.604Z,32.35
2022-09-11T02:46:38.900Z,31.67
2022-09-11T02:49:19.492Z,33.20
2022-09-11T02:51:55.828Z,33.65
2022-09-11T02:54:32.007Z,33.83
2022-09-11T02:57:06.230Z,33.85
2022-09-11T02:59:39.957Z,34.95
2022-09-11T03:02:14.168Z,33.78
2022-09-11T03:04:42.077Z,32.42
2022-09-11T03:07:09.261Z,32.97
2022-09-11T03:09:37.900Z,32.80
2022-09-11T03:12:11.505Z,30.85
2022-09-11T03:14:38.723Z,32.05
2022-09-11T03:17:06.740Z,30.00
2022-09-11T03:19:37.284Z,31.35
2022-09-11T03:22:04.433Z,33.55
2022-09-11T03:24:31.828Z,32.15
2022-09-11T03:27:00.265Z,32.63
2022-09-11T03:29:28.720Z,32.50
2022-09-11T03:31:58.543Z,31.15
2022-09-11T03:34:25.679Z,29.92
2022-09-11T03:36:54.131Z,31.13
2022-09-11T03:39:21.189Z,32.30
2022-09-11T03:41:48.258Z,28.10
2022-09-11T03:44:15.704Z,28.70
2022-09-11T03:46:42.766Z,29.05
2022-09-11T03:49:09.848Z,29.30
2022-09-11T03:51:37.183Z,28.08
2022-09-11T03:54:06.216Z,27.17
2022-09-11T03:56:34.028Z,28.00
2022-09-11T03:59:01.240Z,25.63
2022-09-11T04:01:29.472Z,26.05
2022-09-11T04:03:57.243Z,32.10
2022-09-11T04:06:38.441Z,29.83
2022-09-11T04:09:09.093Z,29.65
2022-09-11T04:11:39.073Z,27.35
2022-09-11T04:14:12.600Z,27.45
2022-09-11T04:16:41.093Z,26.83
2022-09-11T04:19:10.003Z,26.05
2022-09-11T04:21:37.101Z,26.30
2022-09-11T04:24:05.246Z,26.25
2022-09-11T04:26:35.109Z,26.70
2022-09-11T04:29:14.491Z,34.20
2022-09-11T04:31:41.624Z,32.58
2022-09-11T04:34:11.080Z,35.88
2022-09-11T04:36:39.055Z,32.80
2022-09-11T04:39:10.988Z,32.00
2022-09-11T04:41:39.382Z,30.85
2022-09-11T04:44:06.462Z,31.63
2022-09-11T04:46:41.236Z,30.45
2022-09-11T04:49:09.694Z,30.77
2022-09-11T04:51:38.379Z,29.63
2022-09-11T04:54:07.741Z,30.75
2022-09-11T04:56:39.017Z,29.02
2022-09-11T04:59:13.318Z,28.40
2022-09-11T05:01:44.467Z,26.42
2022-09-11T05:04:13.138Z,26.40
2022-09-11T05:06:42.483Z,24.42
2022-09-11T05:09:12.238Z,26.08
2022-09-11T05:11:41.267Z,24.95
2022-09-11T05:14:11.646Z,25.98
2022-09-11T05:16:41.387Z,24.65
2022-09-11T05:19:10.520Z,25.17
2022-09-11T05:21:39.414Z,25.10
2022-09-11T05:24:06.567Z,26.23
2022-09-11T05:26:36.906Z,26.60
2022-09-11T05:29:09.870Z,26.80
2022-09-11T05:31:43.011Z,26.23
2022-09-11T05:34:11.796Z,26.88
2022-09-11T05:36:38.892Z,30.15
2022-09-11T05:39:06.092Z,28.92
2022-09-11T05:41:34.446Z,33.45
2022-09-11T05:44:02.202Z,27.92
2022-09-11T05:46:31.750Z,28.05
2022-09-11T05:49:02.713Z,27.77
2022-09-11T05:51:30.001Z,25.10
2022-09-11T05:53:58.627Z,24.48
2022-09-11T05:56:28.303Z,22.98
2022-09-11T05:58:59.593Z,25.08
2022-09-11T06:01:34.780Z,21.83
2022-09-11T06:04:13.517Z,20.20
2022-09-11T06:06:43.794Z,19.75
2022-09-11T06:09:10.893Z,17.85
2022-09-11T06:11:37.979Z,18.00
2022-09-11T06:14:05.022Z,31.92
2022-09-11T06:16:35.189Z,16.88
2022-09-11T06:19:12.437Z,15.13
2022-09-11T06:21:40.811Z,14.23
2022-09-11T06:24:23.224Z,12.52
2022-09-11T06:26:50.880Z,9.63
2022-09-11T06:29:19.447Z,8.95
2022-09-11T06:31:51.479Z,7.22
2022-09-11T06:34:22.245Z,8.15
2022-09-11T06:36:52.284Z,7.80
2022-09-11T06:39:28.723Z,7.53
2022-09-11T06:41:58.106Z,7.40
2022-09-11T06:44:28.883Z,6.32
2022-09-11T06:47:00.879Z,7.82
2022-09-11T06:49:28.248Z,7.63
2022-09-11T06:52:13.736Z,8.05
2022-09-11T06:54:46.673Z,9.35
2022-09-11T06:57:20.420Z,8.65
2022-09-11T06:59:47.710Z,7.85
2022-09-11T07:02:18.147Z,7.90
2022-09-11T07:04:47.380Z,8.90
2022-09-11T07:07:14.812Z,8.18
2022-09-11T07:09:42.902Z,8.70
2022-09-11T07:12:11.564Z,9.38
2022-09-11T07:14:39.783Z,9.13
2022-09-11T07:17:18.848Z,11.07
2022-09-11T07:19:48.813Z,11.73
2022-09-11T07:22:19.716Z,11.02
2022-09-11T07:24:50.673Z,12.18
2022-09-11T07:27:19.264Z,11.27
2022-09-11T07:29:47.217Z,11.65
2022-09-11T07:32:14.625Z,11.27
2022-09-11T07:34:43.048Z,11.93
2022-09-11T07:37:11.312Z,12.70
2022-09-11T07:39:40.115Z,13.75
2022-09-11T07:42:13.551Z,13.35
2022-09-11T07:44:41.945Z,13.88
2022-09-11T07:47:09.557Z,15.15
2022-09-11T07:49:43.431Z,16.40
2022-09-11T07:52:14.842Z,17.45
2022-09-11T07:54:51.202Z,18.50
2022-09-11T07:57:21.878Z,18.92
2022-09-11T07:59:50.059Z,17.50
2022-09-11T08:02:18.137Z,20.00
2022-09-11T08:04:47.442Z,20.67
2022-09-11T08:07:14.556Z,21.25
2022-09-11T08:09:42.142Z,20.83
2022-09-11T08:12:10.524Z,20.95
2022-09-11T08:14:37.581Z,21.80
2022-09-11T08:17:10.205Z,21.95
2022-09-11T08:19:38.973Z,21.75
2022-09-11T08:22:08.509Z,21.83
2022-09-11T08:24:41.419Z,21.27
2022-09-11T08:27:08.502Z,19.65
2022-09-11T08:29:40.336Z,21.08
2022-09-11T08:32:08.179Z,20.58
2022-09-11T08:34:35.219Z,20.20
2022-09-11T08:37:02.944Z,18.92
2022-09-11T08:39:35.041Z,18.30
2022-09-11T08:42:08.605Z,18.95
2022-09-11T08:44:43.789Z,18.50
2022-09-11T08:47:20.441Z,18.90
2022-09-11T08:49:58.032Z,17.75
2022-09-11T08:52:26.424Z,17.50
2022-09-11T08:54:57.843Z,19.52
2022-09-11T08:57:33.404Z,19.17
2022-09-11T09:00:14.499Z,19.05
2022-09-11T09:03:24.083Z,17.38
2022-09-11T09:05:56.764Z,16.40
2022-09-11T09:08:37.343Z,17.60
2022-09-11T09:14:01.834Z,12.73
2022-09-11T09:16:44.119Z,12.98
2022-09-11T09:19:17.340Z,12.40
2022-09-11T09:21:51.987Z,12.98
2022-09-11T09:24:20.466Z,14.25
2022-09-11T09:26:56.079Z,13.23
2022-09-11T09:29:30.582Z,13.30
2022-09-11T09:32:04.423Z,13.68
2022-09-11T09:34:35.171Z,12.32
2022-09-11T09:37:06.131Z,11.45
2022-09-11T09:39:36.903Z,11.23
2022-09-11T09:45:02.402Z,9.65
2022-09-11T09:47:32.844Z,9.40
2022-09-11T09:50:00.521Z,9.85
2022-09-11T09:52:33.887Z,7.40
2022-09-11T09:55:02.897Z,8.13
2022-09-11T09:57:34.787Z,5.88
2022-09-11T10:00:07.065Z,7.97
2022-09-11T10:02:42.305Z,9.82
2022-09-11T10:05:18.702Z,9.90
2022-09-11T10:07:50.963Z,9.05
2022-09-11T10:10:27.388Z,8.50
2022-09-11T10:13:18.085Z,11.00
2022-09-11T10:15:49.209Z,10.05
2022-09-11T10:18:36.039Z,10.10
2022-09-11T10:21:25.517Z,10.48
2022-09-11T10:23:54.904Z,9.43
2022-09-11T10:26:27.546Z,9.38
2022-09-11T10:29:01.211Z,9.75
2022-09-11T10:31:30.183Z,10.05
2022-09-11T10:33:59.755Z,10.30
2022-09-11T10:36:31.199Z,10.00
2022-09-11T10:39:00.323Z,10.20
2022-09-11T10:41:28.457Z,8.82
2022-09-11T10:44:02.479Z,8.05
2022-09-11T10:46:40.258Z,8.13
2022-09-11T10:49:15.958Z,8.10
2022-09-11T10:51:57.748Z,8.05
2022-09-11T10:54:39.765Z,8.73
2022-09-11T10:57:16.912Z,8.95
2022-09-11T10:59:56.023Z,8.63
2022-09-11T11:02:29.857Z,8.88
2022-09-11T11:05:00.851Z,9.82
2022-09-11T11:08:02.150Z,8.25
2022-09-11T11:10:44.556Z,7.20
2022-09-11T11:13:30.129Z,6.63
2022-09-11T11:16:08.003Z,6.05
2022-09-11T11:18:53.265Z,5.40
2022-09-11T11:21:35.281Z,5.00
2022-09-11T11:24:18.829Z,3.58
2022-09-11T11:26:58.956Z,2.92
2022-09-11T11:30:04.834Z,3.47
2022-09-11T11:32:56.929Z,2.55
2022-09-11T11:35:30.013Z,3.05
2022-09-11T11:38:03.734Z,4.20
2022-09-11T11:40:36.983Z,3.72
2022-09-11T11:43:07.972Z,4.05
2022-09-11T11:45:39.304Z,4.00
2022-09-11T11:48:15.652Z,3.28
2022-09-11T11:50:46.345Z,3.70
2022-09-11T11:53:23.192Z,3.30
2022-09-11T11:56:07.333Z,3.40
2022-09-11T11:58:50.072Z,2.50
2022-09-11T12:01:38.035Z,2.92
2022-09-11T12:04:16.415Z,3.00
2022-09-11T12:06:43.581Z,3.90
2022-09-11T12:09:10.963Z,4.45
2022-09-11T12:11:39.568Z,4.85
2022-09-11T12:14:07.394Z,4.55
2022-09-11T12:16:35.692Z,4.97
2022-09-11T12:19:15.323Z,5.40
2022-09-11T12:22:14.786Z,5.00
2022-09-11T12:24:55.084Z,4.00
2022-09-11T12:27:55.729Z,4.00
2022-09-11T12:30:25.936Z,3.95
2022-09-11T12:32:55.031Z,3.30
2022-09-11T12:35:34.978Z,6.13
2022-09-11T12:38:10.616Z,3.30
2022-09-11T12:40:41.647Z,2.88
2022-09-11T12:43:26.892Z,3.78
2022-09-11T12:45:56.550Z,4.05
2022-09-11T12:48:32.404Z,3.70
2022-09-11T12:51:02.064Z,3.47
2022-09-11T12:53:31.867Z,5.63
2022-09-11T12:56:02.543Z,4.55
2022-09-11T12:58:34.592Z,5.25
2022-09-11T13:01:07.884Z,4.95
2022-09-11T13:03:37.775Z,3.40
2022-09-11T13:06:09.280Z,3.17
2022-09-11T13:08:39.686Z,2.60
2022-09-11T13:11:36.036Z,3.60
2022-09-11T13:14:06.739Z,2.70
2022-09-11T13:16:37.143Z,3.10
2022-09-11T13:19:13.473Z,2.42
2022-09-11T13:21:42.275Z,2.45
2022-09-11T13:24:26.474Z,2.65
2022-09-11T13:26:58.077Z,2.03
2022-09-11T13:29:29.244Z,2.00
2022-09-11T13:31:58.340Z,2.08
2022-09-11T13:34:27.841Z,1.90
2022-09-11T13:36:57.744Z,1.55
2022-09-11T13:39:26.743Z,1.47
2022-09-11T13:42:05.034Z,1.42
2022-09-11T13:44:39.628Z,1.42
2022-09-11T13:47:18.995Z,1.30
2022-09-11T13:49:47.548Z,1.73
2022-09-11T13:52:16.393Z,2.40
2022-09-11T13:54:47.982Z,2.47
2022-09-11T13:57:18.081Z,2.38
2022-09-11T13:59:50.143Z,2.55
2022-09-11T14:02:38.147Z,2.70
2022-09-11T14:05:14.416Z,2.97
2022-09-11T14:07:47.588Z,2.70
2022-09-11T14:10:21.890Z,2.10
2022-09-11T14:12:55.924Z,2.50
2022-09-11T14:15:32.957Z,2.20
2022-09-11T14:18:02.846Z,2.05
2022-09-11T14:20:30.439Z,2.23
2022-09-11T14:23:04.799Z,2.80
2022-09-11T14:25:32.998Z,2.10
2022-09-11T14:28:00.652Z,2.50
2022-09-11T14:30:36.711Z,2.60
2022-09-11T14:33:16.831Z,3.13
2022-09-11T14:35:46.746Z,2.40
2022-09-11T14:38:18.490Z,2.95
2022-09-11T14:40:53.109Z,3.15
2022-09-11T14:43:25.614Z,2.78
2022-09-11T14:45:54.620Z,3.38
2022-09-11T14:48:22.574Z,2.70
2022-09-11T14:50:49.770Z,3.10
2022-09-11T14:53:26.759Z,3.20
2022-09-11T14:55:53.960Z,2.90
2022-09-11T14:58:21.317Z,2.38
2022-09-11T15:00:50.826Z,2.35
2022-09-11T15:03:18.526Z,2.40
2022-09-11T15:05:54.488Z,2.78
2022-09-11T15:08:23.756Z,2.40
2022-09-11T15:10:53.441Z,2.22
2022-09-11T15:13:21.394Z,2.00
2022-09-11T15:15:49.179Z,2.35
2022-09-11T15:18:17.757Z,2.17
2022-09-11T15:20:45.878Z,2.10
2022-09-11T15:23:13.408Z,1.83
2022-09-11T15:25:42.174Z,2.30
2022-09-11T15:28:10.492Z,2.35
2022-09-11T15:30:38.349Z,2.40
2022-09-11T15:33:05.894Z,2.33
2022-09-11T15:35:33.382Z,2.40
2022-09-11T15:38:01.258Z,2.25
2022-09-11T15:40:29.344Z,2.40
2022-09-11T15:42:57.945Z,3.00
2022-09-11T15:45:25.243Z,3.33
2022-09-11T15:47:52.825Z,3.97
2022-09-11T15:50:24.843Z,3.47
2022-09-11T15:52:52.226Z,3.60
2022-09-11T15:55:19.515Z,3.83
2022-09-11T15:57:46.706Z,4.05
2022-09-11T16:00:15.996Z,4.10
2022-09-11T16:02:43.291Z,3.85
2022-09-11T16:05:10.784Z,4.60
2022-09-11T16:07:37.797Z,4.47
2022-09-11T16:10:05.575Z,4.43
2022-09-11T16:12:33.705Z,3.72
2022-09-11T16:15:01.184Z,3.95
2022-09-11T16:17:32.405Z,3.60
2022-09-11T16:19:59.525Z,3.90
2022-09-11T16:22:30.789Z,3.67
2022-09-11T16:24:59.333Z,3.92
2022-09-11T16:27:26.432Z,5.22
2022-09-11T16:32:45.273Z,5.40
2022-09-11T16:35:13.942Z,4.85
2022-09-11T16:37:41.264Z,5.07
2022-09-11T16:40:09.713Z,4.47
2022-09-11T16:42:37.639Z,4.90
2022-09-11T16:45:06.209Z,3.95
2022-09-11T16:47:33.366Z,4.50
2022-09-11T16:50:07.512Z,4.13
2022-09-11T16:52:35.755Z,3.33
2022-09-11T16:55:03.901Z,3.60
2022-09-11T16:57:31.369Z,4.32
2022-09-11T16:59:58.473Z,3.90
2022-09-11T17:02:26.457Z,3.90
2022-09-11T17:04:53.556Z,4.13
2022-09-11T17:07:23.756Z,4.85
2022-09-11T17:09:50.965Z,4.43
2022-09-11T17:12:18.207Z,4.40
2022-09-11T17:14:45.284Z,4.13
2022-09-11T17:17:12.435Z,4.13
2022-09-11T17:19:39.744Z,4.20
2022-09-11T17:22:08.412Z,4.80
2022-09-11T17:24:36.849Z,4.07
2022-09-11T17:27:04.058Z,4.25
2022-09-11T17:29:31.179Z,4.38
2022-09-11T17:32:23.883Z,3.88
2022-09-11T17:34:47.416Z,4.00
2022-09-11T17:37:14.800Z,4.43
2022-09-11T17:39:43.804Z,4.30
2022-09-11T17:42:13.414Z,4.15
2022-09-11T17:44:41.401Z,4.00
2022-09-11T17:47:09.256Z,4.50
2022-09-11T17:49:36.650Z,4.53
2022-09-11T17:52:03.865Z,4.97
2022-09-11T17:54:31.871Z,5.00
2022-09-11T17:57:00.598Z,5.18
2022-09-11T17:59:27.834Z,4.90
2022-09-11T18:01:55.251Z,5.28
2022-09-11T18:04:22.495Z,5.88
2022-09-11T18:06:51.051Z,5.90
2022-09-11T18:09:19.760Z,6.95
2022-09-11T18:11:49.985Z,7.40
2022-09-11T18:14:18.902Z,6.93
2022-09-11T18:16:47.983Z,6.60
2022-09-11T18:19:17.994Z,7.18
2022-09-11T18:21:49.379Z,7.43
2022-09-11T18:24:20.115Z,7.53
2022-09-11T18:26:49.811Z,7.32
2022-09-11T18:29:20.267Z,6.75
2022-09-11T18:31:50.185Z,8.35
2022-09-11T18:34:19.837Z,10.48
2022-09-11T18:36:47.643Z,10.38
2022-09-11T18:39:17.819Z,10.93
2022-09-11T18:41:46.449Z,11.80
2022-09-11T18:44:19.661Z,11.70
2022-09-11T18:46:48.730Z,13.20
2022-09-11T18:49:16.345Z,13.50
2022-09-11T18:51:43.751Z,13.88
2022-09-11T18:54:14.839Z,14.18
2022-09-11T18:59:10.065Z,13.82
2022-09-11T19:01:37.520Z,13.05
2022-09-11T19:04:08.510Z,12.60
2022-09-11T19:06:38.544Z,12.65
2022-09-11T19:09:07.203Z,12.82
2022-09-11T19:11:34.391Z,12.25
2022-09-11T19:14:06.976Z,12.73
2022-09-11T19:16:34.539Z,12.80
2022-09-11T19:19:02.814Z,14.40
2022-09-11T19:21:31.611Z,15.57
2022-09-11T19:24:00.895Z,14.63
2022-09-11T19:26:30.115Z,13.50
2022-09-11T19:28:58.004Z,14.23
2022-09-11T19:31:30.184Z,13.63
2022-09-11T19:34:00.211Z,14.57
2022-09-11T19:36:29.051Z,15.00
2022-09-11T19:39:00.569Z,16.48
2022-09-11T19:41:29.524Z,15.88
2022-09-11T19:44:00.249Z,15.02
2022-09-11T19:46:29.290Z,15.48
2022-09-11T19:49:00.744Z,15.10
2022-09-11T19:51:29.930Z,14.95
2022-09-11T19:54:00.628Z,15.73
2022-09-11T19:56:29.232Z,16.10
2022-09-11T19:58:56.305Z,17.23
2022-09-11T20:01:25.658Z,18.15
2022-09-11T20:03:54.365Z,18.85
2022-09-11T20:06:24.846Z,19.17
2022-09-11T20:09:03.166Z,18.75
2022-09-11T20:11:41.752Z,18.48
2022-09-11T20:14:10.654Z,18.33
2022-09-11T20:16:37.816Z,19.05
2022-09-11T20:19:06.525Z,20.35
2022-09-11T20:21:36.089Z,17.65
2022-09-11T20:24:06.325Z,18.92
2022-09-11T20:26:34.070Z,20.07
2022-09-11T20:29:06.795Z,18.98
2022-09-11T20:31:37.885Z,18.58
2022-09-11T20:34:09.639Z,18.90
2022-09-11T20:36:37.131Z,19.52
2022-09-11T20:39:04.622Z,19.30
2022-09-11T20:41:33.174Z,20.80
2022-09-11T20:44:04.526Z,20.33
2022-09-11T20:46:31.621Z,19.92
2022-09-11T20:49:00.490Z,21.00
2022-09-11T20:51:28.116Z,21.75
2022-09-11T20:53:55.746Z,20.80
2022-09-11T20:56:23.831Z,21.77
2022-09-11T20:58:51.783Z,22.08
2022-09-11T21:01:22.579Z,22.27
2022-09-11T21:03:52.084Z,22.10
2022-09-11T21:06:25.603Z,21.45
2022-09-11T21:08:55.562Z,22.67
2022-09-11T21:11:22.980Z,23.67
2022-09-11T21:13:49.991Z,23.02
2022-09-11T21:16:17.614Z,24.98
2022-09-11T21:18:48.848Z,22.80
2022-09-11T21:23:43.460Z,23.70
2022-09-11T21:26:13.404Z,26.05
2022-09-11T21:28:40.661Z,23.08
2022-09-11T21:31:07.832Z,23.85
2022-09-11T21:33:36.136Z,24.13
2022-09-11T21:36:06.006Z,24.10
2022-09-11T21:38:33.566Z,22.92
2022-09-11T21:41:02.471Z,23.52
2022-09-11T21:43:33.129Z,23.80
2022-09-11T21:46:00.278Z,23.70
2022-09-11T21:48:27.392Z,24.13
2022-09-11T21:50:54.548Z,23.67
2022-09-11T21:53:22.919Z,24.15
2022-09-11T21:55:50.065Z,22.75
2022-09-11T21:58:19.052Z,24.15
2022-09-11T22:00:50.674Z,26.17
2022-09-11T22:03:21.039Z,22.92
2022-09-11T22:05:49.208Z,24.35
2022-09-11T22:08:18.509Z,23.38
2022-09-11T22:10:49.404Z,23.13
2022-09-11T22:13:17.672Z,23.00
2022-09-11T22:15:46.903Z,27.52
2022-09-11T22:18:14.749Z,25.05
2022-09-11T22:20:42.684Z,25.27
2022-09-11T22:23:14.974Z,27.00
2022-09-11T22:25:42.318Z,24.88
2022-09-11T22:28:10.908Z,23.63
2022-09-11T22:30:41.355Z,23.08
2022-09-11T22:33:08.848Z,23.85
2022-09-11T22:35:36.156Z,23.05
2022-09-11T22:38:03.248Z,22.95
2022-09-11T22:40:30.354Z,22.95
2022-09-11T22:42:57.449Z,22.52
2022-09-11T22:45:26.283Z,21.30
2022-09-11T22:47:53.381Z,22.17
2022-09-11T22:50:20.571Z,22.40
2022-09-11T22:52:48.583Z,21.50
2022-09-11T22:55:16.273Z,22.08
2022-09-11T22:57:43.796Z,21.10
2022-09-11T23:00:14.455Z,22.17
2022-09-11T23:02:43.151Z,23.08
2022-09-11T23:05:29.201Z,23.08
2022-09-11T23:07:56.408Z,21.92
2022-09-11T23:10:24.623Z,22.15
2022-09-11T23:12:53.771Z,24.00
2022-09-11T23:15:21.772Z,23.92
2022-09-11T23:17:50.384Z,23.42
2022-09-11T23:20:18.371Z,22.45
2022-09-11T23:22:45.652Z,23.23
2022-09-11T23:25:13.807Z,22.88
2022-09-11T23:27:43.961Z,25.42
2022-09-11T23:30:11.615Z,25.52
2022-09-11T23:32:41.764Z,24.42
2022-09-11T23:35:10.863Z,25.05
2022-09-11T23:37:41.085Z,24.92
2022-09-11T23:40:10.746Z,25.92
2022-09-11T23:42:37.798Z,24.33
2022-09-11T23:45:07.465Z,23.73
2022-09-11T23:47:34.621Z,26.95
2022-09-11T23:50:02.852Z,29.52
2022-09-11T23:52:32.773Z,29.50
2022-09-11T23:54:59.820Z,29.00
2022-09-11T23:57:26.883Z,26.63
2022-09-11T23:59:53.932Z,26.02
